Terminal Aerodrome Forecast
Issued by NWS

Home | Current Version | Previous Version | Text Only | Print | Product List | Glossary On
Versions: 1 2 3 4 5 6 7 8 9 10 11 12 13 14
000
FTUS44 KLIX 252324
TAFMSY
TAF
KMSY 252324Z 2600/2624 15010KT P6SM FEW040 FEW070 BKN250
      TEMPO 2600/2602 VRB15G25KT 2SM TSRA BKN030CB BKN250
     FM260600 12004KT P6SM SCT090 BKN250
     FM261500 13005KT P6SM VCTS SCT025CB BKN090
      TEMPO 2617/2621 VRB15G25KT 1SM TSRA BKN025CB BKN090
     FM262200 24009KT P6SM BKN040=

USA.gov is the U.S. government's official web portal to all federal, state and local government web resources and services.